Time;durP1;ratioP1;P1;durP2;ratioP2;P2;SDS_P1;SDS_P2;PMS_P1;PMS_P2;Temp;Humidity;BMP_temperature;BMP_pressure;BME280_temperature;BME280_humidity;BME280_pressure;Samples;Min_cycle;Max_cycle;Signal;HPM_P1;HPM_P2
2023/04/11 00:01:06;;;;;;;;;;;10.20;79.20;;;;;;5071722;28;20532;-29
2023/04/11 00:03:31;;;;;;;;;;;10.20;79.30;;;;;;5072042;28;19948;-28
2023/04/11 00:05:57;;;;;;;;;;;10.10;79.40;;;;;;5071188;28;19909;-29
2023/04/11 00:08:22;;;;;;;;;;;10.10;79.60;;;;;;5071631;28;19991;-29
2023/04/11 00:10:48;;;;;;;;;;;10.20;79.80;;;;;;5071370;28;19908;-27
2023/04/11 00:13:13;;;;;;;;;;;10.20;80.00;;;;;;5071812;28;19908;-28
2023/04/11 00:15:39;;;;;;;;;;;10.20;80.10;;;;;;5071438;28;19967;-28
2023/04/11 00:18:05;;;;;;;;;;;10.30;80.20;;;;;;5071820;28;20261;-29
2023/04/11 00:20:31;;;;;;;;;;;10.30;80.40;;;;;;5071871;28;20404;-29
2023/04/11 00:22:57;;;;;;;;;;;10.30;80.60;;;;;;5071468;28;19908;-29
2023/04/11 00:25:22;;;;;;;;;;;10.40;80.80;;;;;;5071623;28;19982;-32
2023/04/11 00:27:48;;;;;;;;;;;10.50;81.30;;;;;;5071249;28;19960;-29
2023/04/11 00:30:13;;;;;;;;;;;10.50;81.30;;;;;;5071420;28;19932;-32
2023/04/11 00:32:39;;;;;;;;;;;10.60;82.00;;;;;;5071251;28;20292;-33
2023/04/11 00:35:05;;;;;;;;;;;10.60;81.80;;;;;;5071516;28;19956;-29
2023/04/11 00:37:34;;;;;;;;;;;10.60;82.00;;;;;;5071772;28;20405;-36
2023/04/11 00:40:00;;;;;;;;;;;10.70;81.90;;;;;;5069896;28;19958;-36
2023/04/11 00:42:26;;;;;;;;;;;10.70;82.70;;;;;;5071295;28;20283;-35
2023/04/11 00:44:51;;;;;;;;;;;10.70;82.20;;;;;;5071606;28;19955;-28
2023/04/11 00:47:17;;;;;;;;;;;10.70;82.30;;;;;;5070877;28;19909;-31
2023/04/11 00:49:42;;;;;;;;;;;10.70;82.30;;;;;;5071297;28;19908;-28
2023/04/11 00:52:08;;;;;;;;;;;10.70;82.30;;;;;;5070932;28;19913;-30
2023/04/11 00:54:34;;;;;;;;;;;10.70;82.50;;;;;;5071081;28;19995;-28
2023/04/11 00:57:00;;;;;;;;;;;10.70;82.30;;;;;;5071031;28;20428;-28
2023/04/11 00:59:30;;;;;;;;;;;10.70;82.50;;;;;;5071389;28;19920;-30
2023/04/11 01:01:56;;;;;;;;;;;10.70;82.50;;;;;;5071427;28;19916;-30
2023/04/11 01:04:22;;;;;;;;;;;10.60;82.70;;;;;;5071473;28;19972;-28
2023/04/11 01:06:51;;;;;;;;;;;10.60;82.70;;;;;;5071909;28;19915;-30
2023/04/11 01:09:22;;;;;;;;;;;10.60;82.70;;;;;;5071797;28;20452;-29
2023/04/11 01:11:48;;;;;;;;;;;10.50;82.90;;;;;;5071696;28;19963;-30
2023/04/11 01:14:14;;;;;;;;;;;10.40;83.10;;;;;;5070234;28;19957;-30
2023/04/11 01:16:42;;;;;;;;;;;10.40;83.40;;;;;;5072595;28;19928;-28
2023/04/11 01:19:08;;;;;;;;;;;10.30;83.60;;;;;;5075213;28;19992;-30
2023/04/11 01:21:35;;;;;;;;;;;10.30;84.00;;;;;;5075329;28;19997;-32
2023/04/11 01:24:02;;;;;;;;;;;10.30;84.00;;;;;;5075491;28;19909;-41
2023/04/11 01:26:28;;;;;;;;;;;10.30;84.10;;;;;;5075325;28;20253;-29
2023/04/11 01:28:54;;;;;;;;;;;10.30;84.50;;;;;;5075194;28;19919;-28
2023/04/11 01:31:19;;;;;;;;;;;10.30;84.20;;;;;;5075019;28;19969;-27
2023/04/11 01:33:45;;;;;;;;;;;10.30;84.30;;;;;;5075008;28;19916;-29
2023/04/11 01:36:11;;;;;;;;;;;10.30;84.30;;;;;;5074835;28;19916;-28
2023/04/11 01:38:36;;;;;;;;;;;10.20;84.30;;;;;;5074919;28;20386;-31
2023/04/11 01:41:02;;;;;;;;;;;10.20;84.30;;;;;;5075254;28;20008;-30
2023/04/11 01:43:28;;;;;;;;;;;10.20;84.30;;;;;;5074925;28;19915;-28
2023/04/11 01:45:53;;;;;;;;;;;10.20;84.20;;;;;;5074910;28;20357;-32
2023/04/11 01:48:19;;;;;;;;;;;10.20;84.30;;;;;;5074669;28;19912;-33
2023/04/11 01:50:45;;;;;;;;;;;10.10;84.40;;;;;;5074973;28;19922;-29
2023/04/11 01:53:10;;;;;;;;;;;10.10;84.50;;;;;;5074733;28;19913;-29
2023/04/11 01:55:35;;;;;;;;;;;10.10;84.70;;;;;;5074475;28;20361;-29
2023/04/11 01:58:01;;;;;;;;;;;10.10;84.80;;;;;;5074690;28;20002;-32
2023/04/11 02:00:26;;;;;;;;;;;10.00;84.70;;;;;;5074612;28;20413;-38
2023/04/11 02:02:52;;;;;;;;;;;10.00;84.80;;;;;;5074848;28;20325;-34
2023/04/11 02:05:18;;;;;;;;;;;9.90;84.90;;;;;;5074748;28;19909;-30
2023/04/11 02:07:43;;;;;;;;;;;9.90;85.00;;;;;;5074445;28;19966;-28
2023/04/11 02:10:09;;;;;;;;;;;9.90;85.10;;;;;;5074242;28;19958;-30
2023/04/11 02:12:35;;;;;;;;;;;9.80;85.10;;;;;;5074781;28;19908;-31
2023/04/11 02:15:00;;;;;;;;;;;9.80;85.10;;;;;;5074312;28;19916;-28
2023/04/11 02:17:29;;;;;;;;;;;9.80;85.10;;;;;;5074182;28;19908;-30
2023/04/11 02:19:56;;;;;;;;;;;9.80;85.30;;;;;;5072730;28;19909;-30
2023/04/11 02:22:21;;;;;;;;;;;9.80;85.10;;;;;;5074270;28;19908;-32
2023/04/11 02:24:47;;;;;;;;;;;9.80;85.10;;;;;;5074117;28;19928;-29
2023/04/11 02:27:12;;;;;;;;;;;9.80;85.20;;;;;;5073779;28;19920;-28
2023/04/11 02:29:38;;;;;;;;;;;9.80;85.30;;;;;;5074053;28;20394;-28
2023/04/11 02:32:03;;;;;;;;;;;9.80;85.30;;;;;;5074099;28;19981;-30
2023/04/11 02:34:29;;;;;;;;;;;9.80;85.30;;;;;;5073797;28;19908;-32
2023/04/11 02:36:55;;;;;;;;;;;9.80;85.20;;;;;;5074252;28;19916;-30
2023/04/11 02:39:23;;;;;;;;;;;9.80;85.80;;;;;;5073864;28;19908;-31
2023/04/11 02:41:48;;;;;;;;;;;9.80;85.10;;;;;;5072468;28;19915;-34
2023/04/11 02:44:14;;;;;;;;;;;9.80;85.00;;;;;;5073661;28;19909;-33
2023/04/11 02:46:39;;;;;;;;;;;9.80;85.00;;;;;;5073663;28;19909;-29
2023/04/11 02:49:05;;;;;;;;;;;9.80;85.00;;;;;;5073647;28;19909;-35
2023/04/11 02:51:31;;;;;;;;;;;9.80;84.30;;;;;;5073748;28;20007;-29
2023/04/11 02:53:57;;;;;;;;;;;9.80;84.00;;;;;;5073511;28;19951;-29
2023/04/11 02:56:22;;;;;;;;;;;9.80;83.50;;;;;;5073641;28;19955;-39
2023/04/11 02:58:48;;;;;;;;;;;9.70;83.30;;;;;;5073548;28;19908;-29
2023/04/11 03:01:15;;;;;;;;;;;9.80;82.90;;;;;;5073279;28;20312;-29
2023/04/11 03:03:41;;;;;;;;;;;9.70;82.80;;;;;;5073386;28;19912;-34
2023/04/11 03:06:07;;;;;;;;;;;9.60;82.90;;;;;;5073521;28;20041;-38
2023/04/11 03:08:34;;;;;;;;;;;9.60;83.00;;;;;;5073084;28;20348;-34
2023/04/11 03:11:00;;;;;;;;;;;9.60;83.20;;;;;;5073107;28;19912;-30
2023/04/11 03:13:26;;;;;;;;;;;9.60;83.20;;;;;;5073050;28;19953;-30
2023/04/11 03:15:51;;;;;;;;;;;9.60;83.30;;;;;;5072987;28;19981;-33
2023/04/11 03:18:17;;;;;;;;;;;9.60;83.30;;;;;;5073120;28;19917;-28
2023/04/11 03:20:43;;;;;;;;;;;9.70;83.20;;;;;;5072911;28;20360;-30
2023/04/11 03:23:08;;;;;;;;;;;9.70;83.20;;;;;;5072882;28;19909;-34
2023/04/11 03:25:36;;;;;;;;;;;9.80;83.20;;;;;;5073236;28;20366;-29
2023/04/11 03:28:02;;;;;;;;;;;9.80;83.10;;;;;;5072648;28;19924;-36
2023/04/11 03:30:28;;;;;;;;;;;9.80;83.10;;;;;;5072740;28;19912;-34
2023/04/11 03:32:53;;;;;;;;;;;9.90;83.00;;;;;;5072669;28;19913;-29
2023/04/11 03:35:19;;;;;;;;;;;9.90;83.00;;;;;;5072599;28;19927;-33
2023/04/11 03:37:45;;;;;;;;;;;9.90;83.20;;;;;;5072870;28;19912;-29
2023/04/11 03:40:11;;;;;;;;;;;9.90;83.30;;;;;;5071816;28;19951;-30
2023/04/11 03:42:36;;;;;;;;;;;9.90;83.50;;;;;;5071020;28;20006;-30
2023/04/11 03:45:03;;;;;;;;;;;9.80;83.50;;;;;;5072390;28;20244;-29
2023/04/11 03:47:28;;;;;;;;;;;9.80;83.60;;;;;;5072774;28;19912;-32
2023/04/11 03:49:54;;;;;;;;;;;9.70;83.70;;;;;;5072779;28;20309;-29
2023/04/11 03:52:19;;;;;;;;;;;9.60;83.80;;;;;;5071006;28;20346;-31
2023/04/11 03:54:45;;;;;;;;;;;9.60;84.10;;;;;;5072211;28;19913;-32
2023/04/11 03:57:10;;;;;;;;;;;9.50;84.10;;;;;;5072387;28;19958;-31
2023/04/11 03:59:36;;;;;;;;;;;9.50;84.30;;;;;;5072210;28;20292;-30
2023/04/11 04:02:01;;;;;;;;;;;9.40;84.30;;;;;;5072291;28;20333;-38
2023/04/11 04:04:27;;;;;;;;;;;9.40;84.40;;;;;;5072315;28;19919;-30
2023/04/11 04:06:55;;;;;;;;;;;9.40;84.30;;;;;;5072317;28;19912;-29
2023/04/11 04:09:24;;;;;;;;;;;9.40;84.30;;;;;;5072657;28;19912;-29
2023/04/11 04:11:49;;;;;;;;;;;9.40;84.90;;;;;;5072096;28;20026;-30
2023/04/11 04:14:15;;;;;;;;;;;9.40;84.00;;;;;;5072083;28;19912;-32
2023/04/11 04:16:40;;;;;;;;;;;9.40;83.60;;;;;;5072276;28;19921;-30
2023/04/11 04:19:06;;;;;;;;;;;9.50;83.50;;;;;;5072045;28;19912;-31
2023/04/11 04:21:32;;;;;;;;;;;9.50;83.10;;;;;;5072223;28;19958;-30
2023/04/11 04:24:02;;;;;;;;;;;9.40;82.90;;;;;;5072223;28;19912;-29
2023/04/11 04:26:30;;;;;;;;;;;9.50;83.40;;;;;;5072409;28;20517;-29
2023/04/11 04:29:05;;;;;;;;;;;9.50;82.50;;;;;;5071908;28;19964;-29
2023/04/11 04:31:32;;;;;;;;;;;9.50;82.20;;;;;;5071914;28;19919;-29
2023/04/11 04:34:10;;;;;;;;;;;9.50;82.20;;;;;;5072106;28;19912;-31
2023/04/11 04:36:45;;;;;;;;;;;9.50;82.00;;;;;;5072394;28;19924;-29
2023/04/11 04:39:17;;;;;;;;;;;9.60;82.00;;;;;;5071966;28;19966;-31
2023/04/11 04:41:48;;;;;;;;;;;9.60;82.00;;;;;;5072107;28;19912;-30
2023/04/11 04:44:15;;;;;;;;;;;9.60;81.70;;;;;;5071876;28;20264;-29
2023/04/11 04:46:40;;;;;;;;;;;9.60;81.60;;;;;;5072029;28;20007;-34
2023/04/11 04:49:06;;;;;;;;;;;9.60;81.70;;;;;;5071827;28;20461;-29
2023/04/11 04:51:32;;;;;;;;;;;9.60;81.70;;;;;;5074866;28;20360;-32
2023/04/11 04:53:58;;;;;;;;;;;9.60;81.60;;;;;;5076143;28;19920;-34
2023/04/11 04:56:25;;;;;;;;;;;9.60;81.50;;;;;;5076258;28;20320;-32
2023/04/11 04:58:50;;;;;;;;;;;9.60;81.50;;;;;;5076174;28;20385;-40
2023/04/11 05:01:16;;;;;;;;;;;9.60;81.50;;;;;;5075775;28;19920;-35
2023/04/11 05:03:43;;;;;;;;;;;9.60;81.50;;;;;;5075837;28;19977;-31
2023/04/11 05:06:09;;;;;;;;;;;9.50;81.40;;;;;;5075962;28;20284;-31
2023/04/11 05:08:34;;;;;;;;;;;9.60;81.40;;;;;;5075677;28;19913;-29
2023/04/11 05:11:00;;;;;;;;;;;9.50;81.30;;;;;;5075637;28;19913;-30
2023/04/11 05:13:25;;;;;;;;;;;9.50;81.30;;;;;;5075854;28;19934;-29
2023/04/11 05:15:51;;;;;;;;;;;9.60;81.00;;;;;;5075853;28;19927;-34
2023/04/11 05:18:16;;;;;;;;;;;9.50;80.90;;;;;;5075844;28;19942;-28
2023/04/11 05:20:42;;;;;;;;;;;9.50;80.70;;;;;;5075761;28;20311;-30
2023/04/11 05:23:07;;;;;;;;;;;9.50;80.70;;;;;;5075462;28;19912;-30
2023/04/11 05:25:33;;;;;;;;;;;9.50;80.80;;;;;;5075776;28;19930;-29
2023/04/11 05:27:58;;;;;;;;;;;9.60;80.90;;;;;;5075490;28;19921;-29
2023/04/11 05:30:24;;;;;;;;;;;9.60;80.30;;;;;;5075662;28;19982;-29
2023/04/11 05:32:51;;;;;;;;;;;9.60;79.90;;;;;;5074844;28;21593;-30
2023/04/11 05:35:17;;;;;;;;;;;9.50;79.30;;;;;;5075374;28;19970;-33
2023/04/11 05:37:43;;;;;;;;;;;9.50;79.50;;;;;;5075525;28;19913;-38
2023/04/11 05:40:09;;;;;;;;;;;9.40;79.70;;;;;;5075551;28;19912;-28
2023/04/11 05:42:35;;;;;;;;;;;9.30;79.30;;;;;;5075086;28;19966;-27
2023/04/11 05:45:00;;;;;;;;;;;9.30;79.60;;;;;;5075054;28;19952;-31
2023/04/11 05:47:25;;;;;;;;;;;9.30;79.50;;;;;;5075085;28;19920;-30
2023/04/11 05:49:51;;;;;;;;;;;9.20;78.90;;;;;;5074805;28;19916;-30
2023/04/11 05:52:16;;;;;;;;;;;9.20;79.40;;;;;;5074812;28;20408;-29
2023/04/11 05:54:42;;;;;;;;;;;9.20;79.30;;;;;;5073466;28;20356;-31
2023/04/11 05:57:07;;;;;;;;;;;9.10;78.80;;;;;;5074890;28;19912;-29
2023/04/11 05:59:33;;;;;;;;;;;9.10;78.80;;;;;;5074994;28;19913;-29
2023/04/11 06:01:59;;;;;;;;;;;9.10;79.50;;;;;;5074296;28;19916;-29
2023/04/11 06:04:24;;;;;;;;;;;9.10;79.00;;;;;;5074448;28;19964;-33
2023/04/11 06:06:51;;;;;;;;;;;9.10;79.10;;;;;;5074480;28;20410;-30
2023/04/11 06:09:16;;;;;;;;;;;9.10;78.60;;;;;;5074734;28;19927;-31
2023/04/11 06:11:42;;;;;;;;;;;9.10;78.40;;;;;;5073223;28;19999;-34
2023/04/11 06:14:07;;;;;;;;;;;9.10;78.00;;;;;;5074323;28;19959;-30
2023/04/11 06:16:35;;;;;;;;;;;9.10;78.20;;;;;;5074322;28;19978;-32
2023/04/11 06:19:02;;;;;;;;;;;9.10;78.10;;;;;;5074222;28;19951;-33
2023/04/11 06:21:27;;;;;;;;;;;9.10;77.80;;;;;;5074364;28;19958;-36
2023/04/11 06:23:53;;;;;;;;;;;9.20;78.10;;;;;;5074088;28;19912;-29
2023/04/11 06:26:18;;;;;;;;;;;9.20;77.80;;;;;;5073821;28;19951;-32
2023/04/11 06:28:44;;;;;;;;;;;9.20;77.90;;;;;;5073876;28;19967;-29
2023/04/11 06:31:10;;;;;;;;;;;9.20;77.80;;;;;;5073980;28;20249;-35
2023/04/11 06:33:36;;;;;;;;;;;9.20;77.80;;;;;;5074315;28;19912;-30
2023/04/11 06:36:02;;;;;;;;;;;9.30;77.90;;;;;;5073700;28;20398;-32
2023/04/11 06:38:27;;;;;;;;;;;9.30;77.70;;;;;;5073992;28;19912;-31
2023/04/11 06:40:55;;;;;;;;;;;9.40;77.70;;;;;;5073806;28;19927;-30
2023/04/11 06:43:21;;;;;;;;;;;9.40;77.40;;;;;;5074067;28;19913;-30
2023/04/11 06:45:48;;;;;;;;;;;9.40;77.50;;;;;;5073874;28;19913;-30
2023/04/11 06:48:16;;;;;;;;;;;9.50;77.40;;;;;;5073490;28;19920;-30
2023/04/11 06:50:42;;;;;;;;;;;9.50;77.20;;;;;;5073475;28;19974;-32
2023/04/11 06:53:08;;;;;;;;;;;9.50;77.10;;;;;;5073399;28;20319;-33
2023/04/11 06:55:34;;;;;;;;;;;9.50;76.60;;;;;;5073008;28;19917;-29
2023/04/11 06:58:00;;;;;;;;;;;9.60;76.70;;;;;;5072961;28;19935;-29
2023/04/11 07:00:26;;;;;;;;;;;9.60;76.70;;;;;;5072581;28;20015;-37
2023/04/11 07:02:51;;;;;;;;;;;9.70;76.70;;;;;;5072675;28;20116;-40
2023/04/11 07:05:17;;;;;;;;;;;9.70;76.60;;;;;;5072783;28;19942;-33
2023/04/11 07:07:42;;;;;;;;;;;9.70;76.50;;;;;;5072599;28;19913;-33
2023/04/11 07:10:08;;;;;;;;;;;9.70;76.50;;;;;;5072339;28;19932;-37
2023/04/11 07:12:33;;;;;;;;;;;9.80;76.50;;;;;;5072754;28;19913;-31
2023/04/11 07:14:59;;;;;;;;;;;9.80;76.50;;;;;;5071739;28;20305;-30
2023/04/11 07:17:25;;;;;;;;;;;9.80;76.60;;;;;;5072565;28;20017;-31
2023/04/11 07:19:50;;;;;;;;;;;9.90;76.70;;;;;;5072907;28;19920;-30
2023/04/11 07:22:16;;;;;;;;;;;9.90;76.60;;;;;;5072907;28;20369;-30
2023/04/11 07:24:42;;;;;;;;;;;10.00;76.20;;;;;;5072646;28;19912;-38
2023/04/11 07:27:07;;;;;;;;;;;10.10;76.00;;;;;;5072422;28;20014;-37
2023/04/11 07:29:33;;;;;;;;;;;10.20;75.40;;;;;;5071205;28;19943;-45
2023/04/11 07:31:58;;;;;;;;;;;10.30;75.70;;;;;;5072186;28;20273;-31
2023/04/11 07:34:24;;;;;;;;;;;10.50;75.20;;;;;;5072480;28;19912;-29
2023/04/11 07:36:49;;;;;;;;;;;10.60;74.90;;;;;;5072246;28;19923;-30
2023/04/11 07:39:15;;;;;;;;;;;10.60;74.70;;;;;;5072447;28;19913;-32
2023/04/11 07:41:41;;;;;;;;;;;10.60;74.80;;;;;;5072393;28;19917;-32
2023/04/11 07:44:08;;;;;;;;;;;10.60;74.50;;;;;;5072415;28;20280;-28
2023/04/11 07:46:34;;;;;;;;;;;10.60;73.60;;;;;;5072541;28;19963;-30
2023/04/11 07:49:00;;;;;;;;;;;10.60;73.40;;;;;;5072298;28;20291;-39
2023/04/11 07:51:25;;;;;;;;;;;10.60;73.00;;;;;;5071879;28;19912;-28
2023/04/11 07:53:51;;;;;;;;;;;10.60;72.20;;;;;;5072115;28;19920;-32
2023/04/11 07:56:16;;;;;;;;;;;10.60;70.70;;;;;;5071942;28;20304;-31
2023/04/11 07:58:42;;;;;;;;;;;10.60;69.70;;;;;;5072316;28;20010;-32
2023/04/11 08:01:18;;;;;;;;;;;10.70;70.10;;;;;;5071938;28;20406;-28
2023/04/11 08:03:43;;;;;;;;;;;10.70;70.20;;;;;;5071897;28;19912;-30
2023/04/11 08:06:09;;;;;;;;;;;10.70;70.10;;;;;;5071694;28;20356;-33
2023/04/11 08:08:35;;;;;;;;;;;10.80;69.60;;;;;;5072066;28;19962;-28
2023/04/11 08:11:00;;;;;;;;;;;10.80;68.30;;;;;;5071724;28;20214;-32
2023/04/11 08:13:26;;;;;;;;;;;10.90;66.20;;;;;;5071871;28;19975;-32
2023/04/11 08:15:51;;;;;;;;;;;10.90;67.70;;;;;;5071743;28;20350;-31
2023/04/11 08:18:20;;;;;;;;;;;11.00;67.70;;;;;;5071606;28;19913;-31
2023/04/11 08:20:47;;;;;;;;;;;11.10;67.40;;;;;;5071687;28;20309;-29
2023/04/11 08:23:12;;;;;;;;;;;11.20;67.70;;;;;;5071633;28;19987;-39
2023/04/11 08:25:38;;;;;;;;;;;11.30;68.10;;;;;;5071564;28;19920;-32
2023/04/11 08:28:04;;;;;;;;;;;11.40;64.90;;;;;;5071435;28;19932;-29
2023/04/11 08:30:30;;;;;;;;;;;11.40;64.60;;;;;;5072060;28;20364;-30
2023/04/11 08:32:55;;;;;;;;;;;11.50;63.70;;;;;;5071788;28;19919;-31
2023/04/11 08:35:21;;;;;;;;;;;11.50;60.60;;;;;;5071431;28;20318;-30
2023/04/11 08:37:48;;;;;;;;;;;11.40;59.80;;;;;;5071706;28;19919;-33
2023/04/11 08:40:14;;;;;;;;;;;11.30;60.60;;;;;;5071385;28;19970;-38
2023/04/11 08:42:39;;;;;;;;;;;11.30;62.10;;;;;;5071499;28;19912;-33
2023/04/11 08:45:07;;;;;;;;;;;11.40;63.10;;;;;;5071751;28;20019;-29
2023/04/11 08:47:33;;;;;;;;;;;11.40;62.50;;;;;;5071502;28;19920;-30
2023/04/11 08:49:59;;;;;;;;;;;11.50;63.50;;;;;;5071328;28;20264;-31
2023/04/11 08:52:24;;;;;;;;;;;11.60;63.80;;;;;;5071802;28;20228;-30
2023/04/11 08:54:56;;;;;;;;;;;11.80;62.80;;;;;;5071345;28;20011;-30
2023/04/11 08:57:25;;;;;;;;;;;11.90;61.80;;;;;;5071340;28;20398;-29
2023/04/11 08:59:51;;;;;;;;;;;12.00;61.30;;;;;;5071242;28;19935;-33
2023/04/11 09:02:16;;;;;;;;;;;12.00;61.50;;;;;;5071316;28;19935;-32
2023/04/11 09:04:42;;;;;;;;;;;12.10;61.60;;;;;;5071596;28;20061;-33
2023/04/11 09:07:08;;;;;;;;;;;12.20;60.90;;;;;;5071586;28;19919;-39
2023/04/11 09:09:35;;;;;;;;;;;12.30;61.10;;;;;;5071103;28;19962;-32
2023/04/11 09:12:01;;;;;;;;;;;12.40;60.50;;;;;;5071121;28;19916;-32
2023/04/11 09:14:27;;;;;;;;;;;12.40;60.20;;;;;;5071490;28;20368;-30
2023/04/11 09:16:59;;;;;;;;;;;12.40;59.00;;;;;;5071095;28;19923;-31
2023/04/11 09:19:26;;;;;;;;;;;12.30;59.30;;;;;;5071193;28;19913;-33
2023/04/11 09:21:52;;;;;;;;;;;12.20;59.70;;;;;;5071328;28;19916;-30
2023/04/11 09:24:17;;;;;;;;;;;12.20;59.70;;;;;;5071738;28;20197;-31
2023/04/11 09:26:43;;;;;;;;;;;12.20;60.40;;;;;;5071184;28;20422;-33
2023/04/11 09:29:08;;;;;;;;;;;12.20;60.20;;;;;;5071025;28;19927;-32
2023/04/11 09:31:41;;;;;;;;;;;12.20;59.50;;;;;;5071184;28;20003;-30
2023/04/11 09:34:06;;;;;;;;;;;12.20;59.50;;;;;;5071253;28;20283;-30
2023/04/11 09:36:32;;;;;;;;;;;12.20;60.00;;;;;;5070989;28;19916;-30
2023/04/11 09:38:58;;;;;;;;;;;12.30;59.90;;;;;;5074246;28;20368;-29
2023/04/11 09:41:31;;;;;;;;;;;12.30;60.50;;;;;;5073154;28;19914;-34
2023/04/11 09:43:56;;;;;;;;;;;12.30;60.40;;;;;;5074723;28;19916;-33
2023/04/11 09:46:22;;;;;;;;;;;12.30;60.70;;;;;;5074821;28;20444;-30
2023/04/11 09:48:48;;;;;;;;;;;12.30;59.90;;;;;;5074676;28;20011;-42
2023/04/11 09:51:14;;;;;;;;;;;12.40;59.50;;;;;;5074599;28;19919;-37
2023/04/11 09:53:40;;;;;;;;;;;12.40;59.00;;;;;;5074516;28;20050;-45
2023/04/11 09:56:06;;;;;;;;;;;12.40;59.10;;;;;;5074417;28;20415;-31
2023/04/11 09:58:33;;;;;;;;;;;12.50;58.30;;;;;;5074603;28;19917;-33
2023/04/11 10:00:59;;;;;;;;;;;12.40;58.90;;;;;;5074510;28;19918;-31
2023/04/11 10:03:25;;;;;;;;;;;12.30;59.80;;;;;;5074551;28;19917;-31
2023/04/11 10:05:54;;;;;;;;;;;12.40;58.80;;;;;;5074515;28;19938;-30
2023/04/11 10:08:29;;;;;;;;;;;12.30;57.70;;;;;;5074451;28;20352;-32
2023/04/11 10:10:55;;;;;;;;;;;12.40;57.30;;;;;;5074174;28;20379;-30
2023/04/11 10:13:38;;;;;;;;;;;12.40;57.60;;;;;;5074355;28;20127;-31
2023/04/11 10:16:04;;;;;;;;;;;12.50;58.00;;;;;;5074188;28;20330;-31
2023/04/11 10:18:30;;;;;;;;;;;12.60;57.40;;;;;;5074218;28;19966;-31
2023/04/11 10:20:56;;;;;;;;;;;12.70;56.30;;;;;;5073960;28;20372;-33
2023/04/11 10:23:21;;;;;;;;;;;12.70;55.70;;;;;;5073822;28;19960;-32
2023/04/11 10:25:54;;;;;;;;;;;12.70;56.30;;;;;;5074049;28;20015;-29
2023/04/11 10:28:32;;;;;;;;;;;12.80;56.10;;;;;;5073537;28;19970;-32
2023/04/11 10:30:59;;;;;;;;;;;12.70;54.30;;;;;;5073994;28;20397;-35
2023/04/11 10:33:26;;;;;;;;;;;12.70;54.90;;;;;;5073772;28;19913;-33
2023/04/11 10:36:04;;;;;;;;;;;12.60;54.90;;;;;;5073653;28;19959;-31
2023/04/11 10:38:35;;;;;;;;;;;12.60;54.80;;;;;;5073530;28;19913;-33
2023/04/11 10:41:19;;;;;;;;;;;12.40;54.50;;;;;;5073534;28;19923;-30
2023/04/11 10:43:45;;;;;;;;;;;12.40;54.80;;;;;;5073732;28;20372;-30
2023/04/11 10:46:21;;;;;;;;;;;12.30;52.90;;;;;;5073777;28;19916;-30
2023/04/11 10:49:00;;;;;;;;;;;12.30;53.20;;;;;;5073447;28;19912;-32
2023/04/11 10:51:26;;;;;;;;;;;12.30;54.50;;;;;;5073857;28;20287;-32
2023/04/11 10:53:52;;;;;;;;;;;12.40;54.10;;;;;;5072069;28;19932;-33
2023/04/11 10:56:37;;;;;;;;;;;12.50;54.50;;;;;;5073156;28;19916;-29
2023/04/11 10:59:02;;;;;;;;;;;12.50;54.10;;;;;;5073012;28;19912;-30
2023/04/11 11:01:28;;;;;;;;;;;12.60;53.80;;;;;;5072935;28;19919;-29
2023/04/11 11:03:55;;;;;;;;;;;12.50;51.90;;;;;;5073101;28;19913;-34
2023/04/11 11:06:21;;;;;;;;;;;12.50;49.90;;;;;;5073439;28;19916;-31
2023/04/11 11:08:46;;;;;;;;;;;12.40;50.60;;;;;;5072864;28;19962;-39
2023/04/11 11:11:13;;;;;;;;;;;12.50;51.10;;;;;;5073310;28;19935;-35
2023/04/11 11:13:43;;;;;;;;;;;12.50;51.70;;;;;;5071877;28;19913;-34
2023/04/11 11:16:12;;;;;;;;;;;12.60;52.40;;;;;;5073139;28;19924;-32
2023/04/11 11:18:37;;;;;;;;;;;12.60;52.20;;;;;;5072780;28;19913;-29
2023/04/11 11:21:03;;;;;;;;;;;12.70;52.80;;;;;;5072792;28;20434;-32
2023/04/11 11:23:28;;;;;;;;;;;12.90;52.90;;;;;;5073401;28;19947;-33
2023/04/11 11:25:55;;;;;;;;;;;13.00;51.50;;;;;;5072661;28;19912;-33
2023/04/11 11:28:21;;;;;;;;;;;13.10;51.80;;;;;;5072624;28;19924;-36
2023/04/11 11:30:54;;;;;;;;;;;13.10;52.60;;;;;;5073015;28;19919;-32
2023/04/11 11:33:21;;;;;;;;;;;13.20;52.60;;;;;;5072965;28;19913;-36
2023/04/11 11:35:51;;;;;;;;;;;13.40;51.40;;;;;;5072456;28;19966;-32
2023/04/11 11:38:18;;;;;;;;;;;13.50;51.30;;;;;;5073011;28;19920;-34
2023/04/11 11:40:47;;;;;;;;;;;13.60;50.90;;;;;;5072479;28;20183;-33
2023/04/11 11:43:13;;;;;;;;;;;13.60;50.40;;;;;;5072546;28;19912;-33
2023/04/11 11:45:38;;;;;;;;;;;13.50;49.70;;;;;;5072726;28;20389;-33
2023/04/11 11:48:04;;;;;;;;;;;13.60;50.20;;;;;;5072356;28;20364;-36
2023/04/11 11:50:30;;;;;;;;;;;13.60;50.20;;;;;;5072890;28;19916;-32
2023/04/11 11:52:58;;;;;;;;;;;13.60;51.00;;;;;;5072675;28;20011;-32
2023/04/11 11:55:24;;;;;;;;;;;13.70;50.90;;;;;;5072235;28;19982;-33
2023/04/11 11:57:49;;;;;;;;;;;13.70;49.90;;;;;;5072409;28;20142;-42
2023/04/11 12:00:22;;;;;;;;;;;13.70;49.80;;;;;;5071973;28;19920;-31
2023/04/11 12:02:50;;;;;;;;;;;13.80;49.80;;;;;;5072144;28;19936;-32
2023/04/11 12:05:16;;;;;;;;;;;13.80;49.30;;;;;;5071963;28;19913;-35
2023/04/11 12:07:41;;;;;;;;;;;13.80;49.20;;;;;;5072059;28;19923;-39
2023/04/11 12:10:10;;;;;;;;;;;13.80;49.80;;;;;;5072049;28;20001;-35
2023/04/11 12:12:36;;;;;;;;;;;13.90;49.90;;;;;;5072071;28;19955;-33
2023/04/11 12:15:02;;;;;;;;;;;13.90;50.00;;;;;;5071889;28;19921;-34
2023/04/11 12:17:34;;;;;;;;;;;13.90;49.30;;;;;;5072138;28;19920;-33
2023/04/11 12:19:59;;;;;;;;;;;13.90;48.60;;;;;;5072285;28;20007;-31
2023/04/11 12:22:25;;;;;;;;;;;14.00;49.30;;;;;;5072168;28;20343;-30
2023/04/11 12:24:51;;;;;;;;;;;14.10;49.10;;;;;;5071877;28;20319;-31
2023/04/11 12:27:17;;;;;;;;;;;14.10;48.80;;;;;;5071640;28;20276;-31
2023/04/11 12:29:42;;;;;;;;;;;14.00;48.60;;;;;;5071807;28;19913;-36
2023/04/11 12:32:08;;;;;;;;;;;14.10;49.60;;;;;;5072146;28;20283;-34
2023/04/11 12:34:33;;;;;;;;;;;14.10;49.20;;;;;;5071988;28;19912;-34
2023/04/11 12:36:59;;;;;;;;;;;14.10;47.60;;;;;;5071596;28;20367;-33
2023/04/11 12:39:24;;;;;;;;;;;14.10;47.10;;;;;;5071354;28;19946;-35
2023/04/11 12:41:50;;;;;;;;;;;14.00;47.80;;;;;;5071835;28;19912;-35
2023/04/11 12:44:15;;;;;;;;;;;14.10;47.90;;;;;;5071817;28;19913;-32
2023/04/11 12:46:41;;;;;;;;;;;14.20;47.80;;;;;;5071610;28;19977;-32
2023/04/11 12:49:06;;;;;;;;;;;14.30;48.00;;;;;;5071458;28;19913;-32
2023/04/11 12:51:32;;;;;;;;;;;14.30;48.70;;;;;;5071423;28;20112;-36
2023/04/11 12:53:57;;;;;;;;;;;14.30;49.10;;;;;;5071613;28;19908;-35
2023/04/11 12:56:23;;;;;;;;;;;14.50;48.90;;;;;;5071424;28;19912;-42
2023/04/11 12:58:48;;;;;;;;;;;14.50;49.20;;;;;;5071770;28;20317;-31
2023/04/11 13:01:15;;;;;;;;;;;14.40;48.20;;;;;;5071448;28;19913;-32
2023/04/11 13:03:40;;;;;;;;;;;14.30;48.50;;;;;;5071681;28;19932;-32
2023/04/11 13:06:06;;;;;;;;;;;14.20;48.70;;;;;;5071541;28;19909;-32
2023/04/11 13:08:31;;;;;;;;;;;14.00;49.00;;;;;;5071484;28;20314;-31
2023/04/11 13:10:57;;;;;;;;;;;14.00;49.90;;;;;;5071339;28;20003;-32
2023/04/11 13:13:22;;;;;;;;;;;14.00;50.00;;;;;;5075176;28;20368;-35
2023/04/11 13:15:48;;;;;;;;;;;14.10;50.10;;;;;;5075458;28;19912;-38
2023/04/11 13:18:13;;;;;;;;;;;14.30;49.30;;;;;;5075316;28;19908;-36
2023/04/11 13:20:39;;;;;;;;;;;14.40;47.40;;;;;;5075011;28;19917;-43
2023/04/11 13:23:04;;;;;;;;;;;14.50;48.20;;;;;;5075217;28;19909;-29
2023/04/11 13:25:30;;;;;;;;;;;14.70;47.70;;;;;;5074867;28;20410;-33
2023/04/11 13:27:56;;;;;;;;;;;14.70;46.10;;;;;;5074658;28;19931;-35
2023/04/11 13:30:22;;;;;;;;;;;14.80;46.30;;;;;;5074772;28;19916;-35
2023/04/11 13:32:47;;;;;;;;;;;14.90;45.50;;;;;;5074886;28;19908;-36
2023/04/11 13:35:13;;;;;;;;;;;14.90;45.60;;;;;;5074494;28;19916;-34
2023/04/11 13:37:38;;;;;;;;;;;15.00;45.70;;;;;;5074721;28;19982;-34
2023/04/11 13:40:07;;;;;;;;;;;15.00;44.90;;;;;;5074609;28;19908;-33
2023/04/11 13:42:32;;;;;;;;;;;15.00;44.20;;;;;;5074881;28;19916;-36
2023/04/11 13:44:58;;;;;;;;;;;14.90;43.30;;;;;;5074551;28;19912;-33
2023/04/11 13:47:23;;;;;;;;;;;14.90;44.20;;;;;;5074467;28;19909;-36
2023/04/11 13:49:49;;;;;;;;;;;14.90;43.90;;;;;;5074424;28;19915;-32
2023/04/11 13:52:14;;;;;;;;;;;14.90;44.10;;;;;;5074468;28;19915;-35
2023/04/11 13:54:39;;;;;;;;;;;14.90;45.10;;;;;;5074267;28;19958;-35
2023/04/11 13:57:08;;;;;;;;;;;15.00;45.20;;;;;;5074072;28;19913;-32
2023/04/11 13:59:33;;;;;;;;;;;15.00;44.70;;;;;;5074454;28;20356;-41
2023/04/11 14:02:00;;;;;;;;;;;15.10;44.10;;;;;;5074505;28;19915;-30
2023/04/11 14:04:26;;;;;;;;;;;15.10;44.80;;;;;;5074203;28;19958;-35
2023/04/11 14:06:52;;;;;;;;;;;15.20;44.80;;;;;;5073922;28;19960;-34
2023/04/11 14:09:18;;;;;;;;;;;15.20;44.80;;;;;;5073953;28;20277;-31
2023/04/11 14:11:43;;;;;;;;;;;15.20;44.80;;;;;;5074030;28;19978;-34
2023/04/11 14:14:09;;;;;;;;;;;15.20;45.40;;;;;;5074198;28;20326;-35
2023/04/11 14:16:35;;;;;;;;;;;15.30;45.10;;;;;;5073948;28;19913;-34